FOOG

Port Gentil Airport

Port Gentil, Gabon
METAR FOOG 181100Z 21006KT 9999 SCT011 BKN033 28/24 Q1012
Observed Flight Rules
Oct-18 @ 11:00 UTC (41 minutes ago) Visual Flight Rules
Wind Visibility Clouds
210° at 6 knots 10,000+ meters
  • Scattered at 1,100' AGL
  • Broken at 3,300' AGL
Temperatures Readings
Current 28°C / 82°F
Dewpoint 24°C / 75°F
Humidity 79%
Altimeter 29.88" Hg
Pressure 1012 hPa
Elevation 4
METAR FOOG 181100Z 21006KT 9999 SCT011 BKN033 28/24 Q1012
Observed Flight Rules
Oct-18 @ 11:00 UTC
(41 minutes ago)
VFR
Wind Visibility
210° at 6 knots 10,000+ meters
Clouds
  • Scattered at 1,100' AGL
  • Broken at 3,300' AGL
Temperature Dewpoint
28°C / 82°F 24°C / 75°F
Humidity Altimeter Pressure
79% 29.88" Hg 1012 hPa